Time;durP1;ratioP1;P1;durP2;ratioP2;P2;SDS_P1;SDS_P2;PMS_P1;PMS_P2;Temp;Humidity;BMP_temperature;BMP_pressure;BME280_temperature;BME280_humidity;BME280_pressure;Samples;Min_cycle;Max_cycle;Signal;HPM_P1;HPM_P2
2020/12/20 00:02:17;;;;;;;65.22;33.05;;;;;;;3.90;83.95;101703.69;1615222;86;25891;-81
2020/12/20 00:04:44;;;;;;;73.35;35.17;;;;;;;3.92;84.00;101704.41;1678344;84;25897;-81
2020/12/20 00:07:12;;;;;;;62.33;32.78;;;;;;;3.90;83.88;101703.22;1622282;84;25879;-81
2020/12/20 00:09:39;;;;;;;59.88;33.13;;;;;;;3.91;83.92;101698.77;1662048;84;25953;-81
2020/12/20 00:12:06;;;;;;;66.97;33.18;;;;;;;3.91;83.95;101704.89;1658937;84;27349;-81
2020/12/20 00:14:36;;;;;;;64.05;33.55;;;;;;;3.92;83.88;101703.09;1683506;84;26162;-81
2020/12/20 00:17:10;;;;;;;65.67;33.75;;;;;;;3.91;83.84;101704.89;1614849;85;25500;-81
2020/12/20 00:19:44;;;;;;;64.10;33.65;;;;;;;3.88;83.85;101699.84;1700009;83;35052;-81
2020/12/20 00:22:18;;;;;;;64.67;34.08;;;;;;;3.88;83.88;101701.64;1679665;85;25772;-81
2020/12/20 00:24:45;;;;;;;66.20;32.75;;;;;;;3.88;83.99;101710.92;1683564;84;27540;-82
2020/12/20 00:27:13;;;;;;;69.97;34.30;;;;;;;3.86;84.00;101701.77;1625928;84;26139;-81
2020/12/20 00:29:41;;;;;;;66.00;33.67;;;;;;;3.88;84.00;101702.97;1670369;84;26043;-80
2020/12/20 00:32:12;;;;;;;67.65;33.95;;;;;;;3.91;84.10;101702.23;1675288;84;25841;-81
2020/12/20 00:34:40;;;;;;;63.07;32.67;;;;;;;3.93;84.06;101705.27;1684354;83;26150;-81
2020/12/20 00:37:09;;;;;;;63.38;34.27;;;;;;;3.91;83.99;101708.87;1641265;84;28534;-81
2020/12/20 00:39:37;;;;;;;63.23;33.42;;;;;;;3.89;83.98;101700.70;1659651;84;26212;-81
2020/12/20 00:42:06;;;;;;;66.67;35.52;;;;;;;3.88;83.97;101701.17;1655377;84;25461;-81
2020/12/20 00:44:34;;;;;;;65.28;34.33;;;;;;;3.89;84.03;101706.00;1678745;84;26446;-81
2020/12/20 00:47:04;;;;;;;63.75;33.48;;;;;;;3.91;84.10;101703.56;1636296;84;25963;-81
2020/12/20 00:49:33;;;;;;;62.40;34.90;;;;;;;3.91;83.97;101706.22;1636075;84;27611;-81
2020/12/20 00:52:04;;;;;;;70.78;35.85;;;;;;;3.88;83.99;101705.14;1647009;84;26217;-81
2020/12/20 00:54:32;;;;;;;59.98;32.45;;;;;;;3.86;83.97;101700.91;1677836;84;25943;-80
2020/12/20 00:57:00;;;;;;;67.53;33.73;;;;;;;3.85;84.04;101702.72;1598213;84;25724;-81
2020/12/20 00:59:28;;;;;;;70.08;33.18;;;;;;;3.86;84.12;101708.39;1644885;85;25930;-81
2020/12/20 01:01:58;;;;;;;71.40;36.38;;;;;;;3.87;84.08;101711.39;1663392;84;27419;-81
2020/12/20 01:04:27;;;;;;;71.55;34.90;;;;;;;3.87;84.12;101707.41;1679845;84;25765;-80
2020/12/20 01:06:59;;;;;;;62.50;33.45;;;;;;;3.85;84.07;101703.19;1632039;84;26054;-81
2020/12/20 01:09:27;;;;;;;64.22;33.38;;;;;;;3.84;84.16;101696.22;1683001;83;26194;-81
2020/12/20 01:11:59;;;;;;;64.65;32.78;;;;;;;3.83;84.13;101700.66;1660269;84;25437;-81
2020/12/20 01:14:28;;;;;;;69.80;33.38;;;;;;;3.84;84.20;101702.37;1681868;84;27626;-81
2020/12/20 01:16:57;;;;;;;66.50;34.03;;;;;;;3.84;84.15;101701.52;1642718;84;26205;-81
2020/12/20 01:19:25;;;;;;;68.97;33.08;;;;;;;3.82;84.18;101700.79;1646936;84;25859;-81
2020/12/20 01:21:52;;;;;;;66.75;34.45;;;;;;;3.84;84.21;101695.73;1660008;84;26335;-81
2020/12/20 01:24:20;;;;;;;67.53;33.73;;;;;;;3.83;84.22;101697.16;1688023;83;25420;-80
2020/12/20 01:26:47;;;;;;;63.78;33.30;;;;;;;3.82;84.15;101696.34;1687773;83;27547;-81
2020/12/20 01:29:16;;;;;;;66.62;32.28;;;;;;;3.79;84.12;101693.06;1620609;84;25904;-81
2020/12/20 01:31:45;;;;;;;66.45;34.63;;;;;;;3.76;84.26;101690.16;1658888;84;25885;-81
2020/12/20 01:34:14;;;;;;;66.47;32.28;;;;;;;3.78;84.34;101680.31;1687017;84;26372;-81
2020/12/20 01:36:42;;;;;;;66.50;32.40;;;;;;;3.78;84.27;101678.14;1626681;84;25395;-81
2020/12/20 01:39:11;;;;;;;71.53;33.42;;;;;;;3.78;84.36;101679.46;1668800;84;28455;-81
2020/12/20 01:41:39;;;;;;;66.57;34.25;;;;;;;3.78;84.37;101677.66;1682574;84;25920;-81
2020/12/20 01:44:07;;;;;;;65.28;33.48;;;;;;;3.79;84.35;101677.16;1660449;83;25893;-81
2020/12/20 01:46:41;;;;;;;64.40;32.73;;;;;;;3.79;84.46;101675.83;1665067;84;25953;-81
2020/12/20 01:49:11;;;;;;;67.95;32.17;;;;;;;3.78;84.41;101672.84;1656210;84;25773;-81
2020/12/20 01:51:38;;;;;;;64.27;31.60;;;;;;;3.78;84.40;101673.69;1684345;84;28555;-80
2020/12/20 01:54:10;;;;;;;61.75;31.50;;;;;;;3.75;84.35;101669.94;1646253;85;25812;-81
2020/12/20 01:56:40;;;;;;;68.78;33.08;;;;;;;3.74;84.44;101672.71;1632183;85;26244;-81
2020/12/20 01:59:10;;;;;;;65.92;33.33;;;;;;;3.76;84.57;101672.93;1672247;84;25841;-81
2020/12/20 02:01:39;;;;;;;70.28;33.63;;;;;;;3.78;84.50;101677.66;1684251;84;25509;-81
2020/12/20 02:04:22;;;;;;;65.45;31.37;;;;;;;3.85;84.54;101672.23;1804240;79;25775;-80
2020/12/20 02:06:50;;;;;;;72.70;34.48;;;;;;;3.82;84.50;101672.48;1743972;80;26099;-81
2020/12/20 02:09:20;;;;;;;69.05;33.92;;;;;;;3.82;84.42;101674.29;1745639;80;27912;-80
2020/12/20 02:11:48;;;;;;;66.97;33.33;;;;;;;3.79;84.45;101667.88;1745477;81;25783;-80
2020/12/20 02:14:17;;;;;;;61.92;30.50;;;;;;;3.78;84.46;101672.36;1712422;81;25761;-81
2020/12/20 02:16:47;;;;;;;59.75;31.25;;;;;;;3.78;84.41;101674.16;1711649;80;25796;-80
2020/12/20 02:19:15;;;;;;;65.00;31.80;;;;;;;3.76;84.49;101668.95;1710032;80;25821;-80
2020/12/20 02:21:43;;;;;;;64.75;33.28;;;;;;;3.79;84.62;101671.39;1736897;80;27642;-81
2020/12/20 02:24:12;;;;;;;59.90;31.30;;;;;;;3.79;84.53;101668.73;1720085;80;26583;-80
2020/12/20 02:26:42;;;;;;;65.08;32.48;;;;;;;3.80;84.54;101665.61;1724750;80;25744;-80
2020/12/20 02:29:10;;;;;;;65.25;32.08;;;;;;;3.81;84.55;101656.69;1714074;81;26300;-80
2020/12/20 02:31:38;;;;;;;62.53;31.30;;;;;;;3.81;84.55;101666.81;1764866;80;26496;-80
2020/12/20 02:34:09;;;;;;;67.70;33.92;;;;;;;3.83;84.49;101664.89;1718969;81;27540;-80
2020/12/20 02:36:38;;;;;;;64.90;33.55;;;;;;;3.80;84.43;101655.86;1720584;80;25825;-80
2020/12/20 02:39:08;;;;;;;59.42;30.17;;;;;;;3.80;84.48;101656.34;1739887;80;26432;-80
2020/12/20 02:41:45;;;;;;;64.30;32.05;;;;;;;3.87;84.51;101650.94;1797525;79;25856;-80
2020/12/20 02:44:13;;;;;;;62.03;30.57;;;;;;;3.83;84.51;101654.76;1735953;80;25815;-80
2020/12/20 02:46:43;;;;;;;71.87;34.83;;;;;;;3.82;84.53;101656.59;1730148;81;27331;-81
2020/12/20 02:49:12;;;;;;;68.73;32.60;;;;;;;3.83;84.53;101659.59;1733775;82;26151;-80
2020/12/20 02:51:40;;;;;;;71.47;33.90;;;;;;;3.86;84.61;101663.81;1685177;82;25877;-80
2020/12/20 02:54:09;;;;;;;67.42;31.75;;;;;;;3.86;84.56;101657.19;1684401;82;25865;-80
2020/12/20 02:56:47;;;;;;;72.22;33.80;;;;;;;3.91;84.50;101646.58;1820243;77;25678;-80
2020/12/20 02:59:16;;;;;;;68.35;33.08;;;;;;;3.86;84.46;101641.28;1760839;80;25391;-81
2020/12/20 03:01:43;;;;;;;69.35;33.15;;;;;;;3.85;84.47;101639.58;1763157;80;27200;-80
2020/12/20 03:04:12;;;;;;;71.05;33.63;;;;;;;3.84;84.40;101633.46;1790272;80;25702;-80
2020/12/20 03:06:41;;;;;;;64.97;32.85;;;;;;;3.82;84.40;101643.34;1713075;80;25924;-80
2020/12/20 03:09:09;;;;;;;69.40;33.60;;;;;;;3.84;84.44;101645.86;1783060;80;25876;-81
2020/12/20 03:11:37;;;;;;;65.92;31.12;;;;;;;3.82;84.47;101643.34;1759476;80;25401;-80
2020/12/20 03:14:06;;;;;;;60.67;32.03;;;;;;;3.84;84.47;101646.71;1790182;80;28503;-80
2020/12/20 03:16:35;;;;;;;67.30;33.18;;;;;;;3.84;84.45;101646.71;1761551;80;26039;-80
2020/12/20 03:19:02;;;;;;;64.17;31.90;;;;;;;3.84;84.43;101651.16;1757163;80;25791;-80
2020/12/20 03:21:30;;;;;;;61.30;33.13;;;;;;;3.85;84.51;101648.86;1763141;80;25450;-80
2020/12/20 03:24:19;;;;;;;70.57;34.53;;;;;;;3.90;84.45;101652.86;1827698;77;25720;-80
2020/12/20 03:26:55;;;;;;;73.28;34.48;;;;;;;3.84;84.43;101656.46;1793962;78;26290;-80
2020/12/20 03:29:42;;;;;;;72.60;39.78;;;;;;;3.91;84.48;101658.50;1793451;77;29095;-80
2020/12/20 03:32:19;;;;;;;67.50;35.03;;;;;;;4.14;84.06;101656.73;1834650;77;25731;-80
2020/12/20 03:34:54;;;;;;;66.65;32.17;;;;;;;4.05;84.13;101668.53;1765512;78;25796;-80
2020/12/20 03:37:23;;;;;;;68.05;33.88;;;;;;;4.03;84.17;101663.36;1774090;78;27323;-80
2020/12/20 03:40:05;;;;;;;68.15;33.83;;;;;;;4.00;84.16;101658.78;1799933;78;25800;-80
2020/12/20 03:42:34;;;;;;;71.35;33.45;;;;;;;4.00;84.25;101661.44;1751215;78;25800;-81
2020/12/20 03:45:01;;;;;;;75.35;35.38;;;;;;;3.99;84.14;101659.25;1782481;78;26358;-80
2020/12/20 03:47:29;;;;;;;73.50;34.27;;;;;;;3.98;84.22;101658.88;1756037;78;25404;-80
2020/12/20 03:49:56;;;;;;;73.72;33.30;;;;;;;3.97;84.22;101662.51;1806487;78;28547;-80
2020/12/20 03:52:24;;;;;;;67.40;33.60;;;;;;;3.98;84.28;101667.34;1753561;79;26223;-80
2020/12/20 03:54:53;;;;;;;73.00;35.03;;;;;;;3.98;84.27;101672.64;1761601;78;25817;-80
2020/12/20 03:57:21;;;;;;;65.22;32.50;;;;;;;3.97;84.30;101659.86;1774566;78;25849;-80
2020/12/20 03:59:49;;;;;;;71.47;35.23;;;;;;;3.98;84.29;101657.55;1800936;78;25733;-80
2020/12/20 04:02:17;;;;;;;65.17;33.20;;;;;;;3.98;84.27;101651.44;1759013;78;27549;-80
2020/12/20 04:04:45;;;;;;;71.77;35.38;;;;;;;3.99;84.31;101654.43;1773829;78;26144;-80
2020/12/20 04:07:12;;;;;;;68.62;33.90;;;;;;;3.99;84.33;101653.10;1774560;78;25981;-80
2020/12/20 04:09:42;;;;;;;74.03;35.13;;;;;;;4.00;84.31;101650.83;1798944;78;26310;-80
2020/12/20 04:12:19;;;;;;;75.28;33.90;;;;;;;4.05;84.28;101644.19;1789832;79;25889;-80
2020/12/20 04:14:47;;;;;;;72.97;34.75;;;;;;;4.01;84.28;101651.17;1741997;80;25971;-81
2020/12/20 04:17:15;;;;;;;67.20;32.20;;;;;;;4.02;84.23;101652.38;1751529;80;27316;-80
2020/12/20 04:19:42;;;;;;;71.05;34.15;;;;;;;4.02;84.20;101655.02;1759363;80;25727;-80
2020/12/20 04:22:31;;;;;;;72.90;34.83;;;;;;;4.08;84.19;101651.92;1838788;77;25648;-80
2020/12/20 04:25:27;;;;;;;70.15;33.50;;;;;;;4.09;84.14;101655.39;1837149;77;25707;-80
2020/12/20 04:28:12;;;;;;;65.15;31.00;;;;;;;4.03;84.11;101655.88;1769582;80;25762;-81
2020/12/20 04:30:40;;;;;;;73.07;34.40;;;;;;;4.03;84.17;101660.70;1771851;78;27106;-80
2020/12/20 04:33:09;;;;;;;66.15;32.95;;;;;;;4.02;84.16;101652.38;1805125;78;26069;-80
2020/12/20 04:35:38;;;;;;;73.02;34.03;;;;;;;4.00;84.08;101652.97;1763242;80;25790;-80
2020/12/20 04:38:06;;;;;;;70.80;34.53;;;;;;;4.00;84.16;101647.67;1775622;79;25871;-80
2020/12/20 04:40:36;;;;;;;71.42;33.67;;;;;;;4.03;84.22;101647.92;1768332;78;25835;-80
2020/12/20 04:43:10;;;;;;;75.57;35.35;;;;;;;4.04;84.15;101653.60;1795166;78;27532;-81
2020/12/20 04:45:39;;;;;;;70.05;32.73;;;;;;;4.03;84.04;101655.88;1791143;79;26156;-81
2020/12/20 04:48:11;;;;;;;74.17;32.67;;;;;;;4.00;84.11;101656.13;1749852;78;26158;-80
2020/12/20 04:50:41;;;;;;;71.10;35.58;;;;;;;4.01;84.22;101652.50;1757595;78;25848;-80
2020/12/20 04:53:09;;;;;;;67.05;33.63;;;;;;;4.03;84.22;101651.90;1782044;78;25676;-81
2020/12/20 04:55:50;;;;;;;73.67;35.17;;;;;;;4.04;84.12;101650.95;1759380;78;28482;-80
2020/12/20 04:58:25;;;;;;;72.30;34.27;;;;;;;4.02;84.09;101650.23;1745693;79;25817;-81
2020/12/20 05:00:54;;;;;;;68.90;32.88;;;;;;;4.04;84.28;101656.25;1764055;80;25685;-81
2020/12/20 05:03:22;;;;;;;71.60;32.80;;;;;;;4.05;84.17;101657.45;1794584;79;25779;-80
2020/12/20 05:05:51;;;;;;;71.85;34.55;;;;;;;4.04;84.11;101661.08;1770797;78;25780;-80
2020/12/20 05:08:24;;;;;;;72.70;34.70;;;;;;;4.04;84.14;101662.41;1746109;78;27536;-81
2020/12/20 05:10:53;;;;;;;71.80;34.67;;;;;;;4.03;84.11;101663.83;1770754;78;26358;-81
2020/12/20 05:13:22;;;;;;;70.10;34.15;;;;;;;4.04;84.19;101664.20;1763534;79;25356;-81
2020/12/20 05:15:51;;;;;;;70.17;34.60;;;;;;;4.06;84.28;101665.78;1750178;78;25847;-81
2020/12/20 05:18:45;;;;;;;71.02;31.90;;;;;;;4.15;84.19;101667.69;1848644;75;25319;-80
2020/12/20 05:21:19;;;;;;;68.33;32.45;;;;;;;4.08;84.16;101668.30;1825918;77;27181;-80
2020/12/20 05:23:46;;;;;;;69.30;34.53;;;;;;;4.10;84.14;101671.20;1785242;78;27216;-80
2020/12/20 05:26:30;;;;;;;68.65;32.65;;;;;;;4.07;84.09;101673.23;1787563;79;26126;-80
2020/12/20 05:29:13;;;;;;;71.77;33.48;;;;;;;4.06;84.04;101667.58;1769991;80;25773;-80
2020/12/20 05:31:42;;;;;;;63.63;32.53;;;;;;;4.07;84.10;101674.55;1752671;80;25912;-81
2020/12/20 05:34:22;;;;;;;68.83;34.35;;;;;;;4.12;84.05;101669.28;1798952;79;25658;-80
2020/12/20 05:36:49;;;;;;;67.92;33.05;;;;;;;4.08;84.09;101678.44;1722309;82;25795;-80
2020/12/20 05:39:35;;;;;;;63.92;31.65;;;;;;;4.11;84.08;101684.80;1822892;77;25792;-80
2020/12/20 05:42:07;;;;;;;69.55;32.93;;;;;;;4.05;84.02;101686.61;1797451;78;25742;-80
2020/12/20 05:44:36;;;;;;;66.28;31.42;;;;;;;4.05;84.08;101690.59;1777748;78;27194;-81
2020/12/20 05:47:06;;;;;;;69.65;33.83;;;;;;;4.06;84.13;101690.97;1791613;78;25443;-80
2020/12/20 05:49:38;;;;;;;64.77;32.80;;;;;;;4.07;84.13;101701.06;1718719;81;25776;-81
2020/12/20 05:52:12;;;;;;;66.75;32.73;;;;;;;4.09;84.13;101696.02;1678295;82;25816;-80
2020/12/20 05:54:42;;;;;;;69.07;32.63;;;;;;;4.11;84.11;101699.39;1725296;81;26004;-80
2020/12/20 05:57:14;;;;;;;66.22;32.75;;;;;;;4.12;83.96;101694.94;1739519;81;28478;-80
2020/12/20 05:59:44;;;;;;;67.62;32.63;;;;;;;4.11;84.03;101697.21;1713510;82;26144;-80
2020/12/20 06:02:12;;;;;;;68.28;32.50;;;;;;;4.13;84.08;101696.64;1699426;81;25786;-80
2020/12/20 06:04:41;;;;;;;67.08;32.25;;;;;;;4.12;84.01;101702.42;1707424;82;26025;-81
2020/12/20 06:07:10;;;;;;;67.82;33.35;;;;;;;4.13;84.02;101697.97;1746112;81;25836;-80
2020/12/20 06:09:59;;;;;;;70.85;32.20;;;;;;;4.10;83.96;101700.37;1734578;81;27531;-80
2020/12/20 06:12:31;;;;;;;74.55;33.85;;;;;;;4.12;83.99;101706.39;1693381;81;25853;-81
2020/12/20 06:14:59;;;;;;;66.47;32.75;;;;;;;4.14;84.10;101711.09;1708502;82;26539;-81
2020/12/20 06:17:28;;;;;;;70.67;34.45;;;;;;;4.15;84.04;101702.67;1742209;81;26020;-81
2020/12/20 06:20:04;;;;;;;68.12;32.08;;;;;;;4.14;84.02;101703.14;1679200;82;25951;-81
2020/12/20 06:22:34;;;;;;;68.62;32.00;;;;;;;4.16;84.00;101709.64;1722070;81;27518;-80
2020/12/20 06:25:07;;;;;;;62.57;31.90;;;;;;;4.15;84.06;101706.14;1708492;82;25824;-81
2020/12/20 06:27:36;;;;;;;67.08;31.90;;;;;;;4.17;84.04;101702.06;1742503;81;25862;-80
2020/12/20 06:30:07;;;;;;;69.82;34.33;;;;;;;4.15;83.99;101698.69;1706059;82;25857;-81
2020/12/20 06:32:58;;;;;;;62.83;32.33;;;;;;;4.15;84.01;101708.79;1717230;81;26046;-81
2020/12/20 06:35:30;;;;;;;69.20;33.50;;;;;;;4.17;84.08;101698.91;1695225;82;27283;-81
2020/12/20 06:37:58;;;;;;;67.97;33.83;;;;;;;4.15;84.00;101704.81;1721766;82;26517;-80
2020/12/20 06:40:37;;;;;;;74.82;35.35;;;;;;;4.13;84.02;101710.72;1718941;82;26456;-80
2020/12/20 06:43:04;;;;;;;77.47;35.33;;;;;;;4.14;84.06;101704.47;1752931;80;25882;-80
2020/12/20 06:45:42;;;;;;;71.28;35.70;;;;;;;4.15;84.09;101710.12;1712900;82;26486;-80
2020/12/20 06:48:10;;;;;;;69.27;33.55;;;;;;;4.15;84.02;101710.12;1703830;83;27614;-80
2020/12/20 06:50:49;;;;;;;72.00;35.33;;;;;;;4.18;84.13;101713.02;1663401;82;26249;-80
2020/12/20 06:53:18;;;;;;;68.00;33.98;;;;;;;4.19;84.10;101707.59;1704730;82;26584;-80
2020/12/20 06:55:46;;;;;;;67.12;34.20;;;;;;;4.21;84.09;101715.45;1690795;82;25817;-80
2020/12/20 06:58:17;;;;;;;67.45;33.48;;;;;;;4.19;83.97;101722.68;1734856;82;25825;-80
2020/12/20 07:00:50;;;;;;;;;;;;;;;4.18;84.09;101724.48;1656710;83;28371;-80
2020/12/20 07:03:32;;;;;;;69.15;33.90;;;;;;;4.17;84.03;101733.38;1676692;83;25939;-80
2020/12/20 07:06:18;;;;;;;69.90;34.78;;;;;;;4.14;84.15;101736.28;1692067;82;25828;-80
2020/12/20 07:08:58;;;;;;;67.67;34.48;;;;;;;4.17;84.26;101739.19;1688125;82;25850;-80
2020/12/20 07:11:27;;;;;;;70.60;35.17;;;;;;;4.20;84.27;101741.11;1672735;83;25888;-80
2020/12/20 07:13:56;;;;;;;64.27;33.18;;;;;;;4.24;84.33;101737.26;1704279;82;28384;-80
2020/12/20 07:16:39;;;;;;;69.97;34.80;;;;;;;4.27;84.28;101741.48;1700457;82;26121;-80
2020/12/20 07:19:07;;;;;;;79.75;36.35;;;;;;;4.27;84.14;101746.31;1699400;82;25800;-80
2020/12/20 07:21:47;;;;;;;68.52;35.00;;;;;;;4.28;84.13;101745.34;1689150;82;25896;-80
2020/12/20 07:24:22;;;;;;;73.85;36.80;;;;;;;4.26;84.12;101743.28;1707630;82;26020;-80
2020/12/20 07:26:56;;;;;;;70.78;33.63;;;;;;;4.26;84.10;101749.91;1678124;83;27331;-80
2020/12/20 07:29:23;;;;;;;70.08;35.80;;;;;;;4.23;84.04;101748.84;1686195;82;25965;-81
2020/12/20 07:31:53;;;;;;;68.22;33.98;;;;;;;4.22;84.11;101754.25;1708170;83;25820;-80
2020/12/20 07:34:21;;;;;;;72.60;33.42;;;;;;;4.23;84.18;101753.30;1692494;83;25749;-81
2020/12/20 07:36:48;;;;;;;68.60;33.85;;;;;;;4.25;84.14;101759.33;1715499;82;26323;-80
2020/12/20 07:39:17;;;;;;;67.95;34.43;;;;;;;4.25;84.08;101758.00;1693869;82;27541;-80
2020/12/20 07:41:45;;;;;;;70.47;33.95;;;;;;;4.26;84.16;101761.00;1670691;83;26654;-80
2020/12/20 07:44:13;;;;;;;73.52;33.78;;;;;;;4.27;84.12;101762.70;1708320;82;26092;-80
2020/12/20 07:46:41;;;;;;;71.25;32.78;;;;;;;4.29;84.12;101763.43;1666074;83;26436;-80
2020/12/20 07:49:12;;;;;;;70.12;34.18;;;;;;;4.29;84.07;101767.41;1703917;81;26008;-80
2020/12/20 07:51:41;;;;;;;68.35;33.55;;;;;;;4.30;84.13;101772.58;1686728;82;27544;-81
2020/12/20 07:54:12;;;;;;;64.12;34.30;;;;;;;4.31;84.13;101776.09;1715158;81;26051;-81
2020/12/20 07:56:46;;;;;;;;;;;;;;;4.33;84.14;101775.48;1724167;81;26523;-81
2020/12/20 07:59:16;;;;;;;68.40;35.43;;;;;;;4.33;84.04;101782.97;1720541;81;25775;-81
2020/12/20 08:01:46;;;;;;;77.35;35.00;;;;;;;4.30;84.15;101783.19;1721114;81;27158;-80
2020/12/20 08:04:22;;;;;;;68.50;32.55;;;;;;;4.34;84.17;101785.15;1707591;82;27320;-80
2020/12/20 08:06:51;;;;;;;68.52;34.53;;;;;;;4.33;84.01;101789.60;1746538;81;26137;-80
2020/12/20 08:09:23;;;;;;;70.05;33.63;;;;;;;4.35;84.16;101788.14;1665336;83;25420;-80
2020/12/20 08:11:53;;;;;;;66.30;34.90;;;;;;;4.36;84.15;101785.37;1702257;81;25759;-80
2020/12/20 08:14:23;;;;;;;70.78;34.92;;;;;;;4.40;84.14;101793.48;1721630;81;25926;-80
2020/12/20 08:16:52;;;;;;;65.50;33.70;;;;;;;4.40;84.09;101778.89;1750458;81;28867;-80
2020/12/20 08:19:29;;;;;;;70.50;34.80;;;;;;;4.44;84.08;101785.64;1668743;83;26000;-80
2020/12/20 08:22:06;;;;;;;65.22;32.65;;;;;;;4.45;84.07;101791.77;1688560;82;25917;-80
2020/12/20 08:24:42;;;;;;;66.00;35.48;;;;;;;4.45;84.06;101789.97;1707225;82;25780;-80
2020/12/20 08:27:28;;;;;;;69.90;35.73;;;;;;;4.46;84.02;101789.02;1733898;80;25918;-80
2020/12/20 08:30:05;;;;;;;68.80;34.10;;;;;;;4.45;83.96;101795.28;1696719;81;27619;-80
2020/12/20 08:32:41;;;;;;;70.72;35.23;;;;;;;4.44;83.96;101791.42;1690636;83;26179;-80
2020/12/20 08:35:15;;;;;;;69.03;34.33;;;;;;;4.40;83.88;101793.95;1716584;81;26340;-80
2020/12/20 08:37:53;;;;;;;63.20;31.40;;;;;;;4.41;83.96;101800.94;1712400;83;26138;-80
2020/12/20 08:40:31;;;;;;;59.67;31.62;;;;;;;4.49;84.07;101791.92;1787663;79;26275;-81
2020/12/20 08:43:02;;;;;;;60.67;31.73;;;;;;;4.44;84.05;101793.61;1731484;80;25801;-80
2020/12/20 08:45:30;;;;;;;62.40;30.80;;;;;;;4.47;84.03;101793.86;1730477;80;27083;-80
2020/12/20 08:48:03;;;;;;;61.83;31.73;;;;;;;4.46;83.95;101800.96;1735278;81;26367;-80
2020/12/20 08:50:32;;;;;;;61.68;32.70;;;;;;;4.47;84.11;101798.66;1744027;80;25925;-81
2020/12/20 08:53:07;;;;;;;57.03;31.02;;;;;;;4.50;84.17;101800.23;1726348;81;25780;-81
2020/12/20 08:55:35;;;;;;;52.23;28.32;;;;;;;4.53;84.22;101802.66;1740902;80;25945;-81
2020/12/20 08:58:09;;;;;;;54.93;29.60;;;;;;;4.55;84.08;101802.91;1765240;80;27535;-80
2020/12/20 09:00:37;;;;;;;53.28;27.82;;;;;;;4.55;83.97;101804.71;1756583;80;26368;-81
2020/12/20 09:03:06;;;;;;;55.95;29.57;;;;;;;4.54;83.87;101805.66;1752121;80;25845;-81
2020/12/20 09:05:35;;;;;;;58.63;30.75;;;;;;;4.54;83.92;101804.33;1767589;80;25881;-81
2020/12/20 09:08:05;;;;;;;61.40;32.83;;;;;;;4.52;83.79;101813.75;1754589;81;25833;-81
2020/12/20 09:10:34;;;;;;;62.15;29.45;;;;;;;4.53;84.31;101808.78;1728287;80;27546;-80
2020/12/20 09:13:06;;;;;;;58.13;31.57;;;;;;;4.57;84.08;101813.39;1752453;80;25385;-81
2020/12/20 09:15:36;;;;;;;64.97;33.18;;;;;;;4.56;84.02;101811.22;1766914;80;25937;-81
2020/12/20 09:18:18;;;;;;;58.97;29.77;;;;;;;4.56;84.05;101815.20;1763661;80;25954;-81
2020/12/20 09:20:48;;;;;;;66.57;32.75;;;;;;;4.56;83.96;101819.66;1719878;80;25890;-81
2020/12/20 09:23:23;;;;;;;61.35;30.43;;;;;;;4.55;83.98;101823.28;1762315;80;27527;-80
2020/12/20 09:26:02;;;;;;;64.70;33.48;;;;;;;4.54;84.07;101821.58;1763336;80;26487;-80
2020/12/20 09:28:32;;;;;;;67.97;30.62;;;;;;;4.52;84.14;101820.38;1759847;80;25757;-80
2020/12/20 09:31:05;;;;;;;68.02;34.75;;;;;;;4.51;84.10;101823.16;1742010;80;25884;-80
2020/12/20 09:33:40;;;;;;;61.88;31.17;;;;;;;4.50;84.25;101818.80;1757534;80;26385;-80
2020/12/20 09:36:14;;;;;;;75.12;35.43;;;;;;;4.52;84.24;101823.03;1754824;81;27460;-82
2020/12/20 09:38:48;;;;;;;67.17;34.03;;;;;;;4.54;84.28;101819.78;1759000;80;25796;-82
2020/12/20 09:41:23;;;;;;;75.95;36.90;;;;;;;4.54;84.32;101814.47;1704152;80;26063;-81
2020/12/20 09:44:01;;;;;;;68.83;33.42;;;;;;;4.59;84.28;101820.75;1823875;78;25779;-80
2020/12/20 09:46:35;;;;;;;63.78;33.58;;;;;;;4.55;84.40;101814.00;1749374;80;25827;-84
2020/12/20 09:49:04;;;;;;;64.25;33.08;;;;;;;4.54;84.25;101813.63;1764262;80;26246;-83
2020/12/20 09:51:35;;;;;;;71.87;34.73;;;;;;;4.53;84.34;101813.27;1718962;81;25743;-83
2020/12/20 09:54:03;;;;;;;75.57;35.92;;;;;;;4.53;84.41;101813.27;1682227;82;25853;-83
2020/12/20 09:56:31;;;;;;;72.22;34.13;;;;;;;4.54;84.44;101816.27;1671863;82;25685;-83
2020/12/20 09:58:58;;;;;;;68.05;35.20;;;;;;;4.57;84.54;101808.94;1694582;82;26411;-83
2020/12/20 10:01:26;;;;;;;65.30;34.33;;;;;;;4.57;84.43;101804.96;1722654;82;27543;-83
2020/12/20 10:03:54;;;;;;;72.55;37.42;;;;;;;4.59;84.50;101801.70;1687523;82;25903;-83
2020/12/20 10:06:21;;;;;;;61.35;31.87;;;;;;;4.62;84.50;101796.14;1684701;82;25809;-83
2020/12/20 10:08:49;;;;;;;60.45;32.55;;;;;;;4.62;84.37;101797.47;1683383;84;25940;-83
2020/12/20 10:11:19;;;;;;;61.83;30.90;;;;;;;4.61;84.26;101804.23;1686702;82;26272;-83
2020/12/20 10:13:50;;;;;;;58.63;29.85;;;;;;;4.57;84.12;101802.78;1654982;85;26045;-83
2020/12/20 10:16:20;;;;;;;51.08;27.93;;;;;;;4.56;84.16;101807.23;1687539;82;26699;-81
2020/12/20 10:18:47;;;;;;;57.48;28.90;;;;;;;4.57;84.10;101806.29;1678099;84;25868;-81
2020/12/20 10:21:17;;;;;;;54.08;31.40;;;;;;;4.59;84.18;101795.07;1694106;82;25857;-81
2020/12/20 10:23:47;;;;;;;41.35;23.75;;;;;;;4.61;84.00;101797.13;1654404;84;26076;-81
2020/12/20 10:26:14;;;;;;;42.88;22.93;;;;;;;4.63;83.82;101799.65;1679872;82;27488;-80
2020/12/20 10:28:42;;;;;;;48.33;26.05;;;;;;;4.60;83.59;101808.69;1683706;83;25987;-80
2020/12/20 10:31:13;;;;;;;41.05;22.15;;;;;;;4.58;83.69;101801.33;1700860;83;25903;-81
2020/12/20 10:33:41;;;;;;;41.48;23.40;;;;;;;4.59;83.56;101803.50;1653721;83;25821;-81
2020/12/20 10:36:11;;;;;;;43.15;23.30;;;;;;;4.60;83.59;101799.40;1646378;83;26556;-80
2020/12/20 10:38:39;;;;;;;45.75;24.40;;;;;;;4.59;83.43;101789.77;1691544;83;27376;-80
2020/12/20 10:41:07;;;;;;;48.52;26.35;;;;;;;4.58;83.34;101788.53;1722283;82;26056;-80
2020/12/20 10:43:35;;;;;;;48.65;24.82;;;;;;;4.58;83.43;101797.34;1702645;82;25863;-80
2020/12/20 10:46:02;;;;;;;49.13;25.05;;;;;;;4.63;83.63;101791.69;1686772;84;26282;-80
2020/12/20 10:48:31;;;;;;;41.58;24.47;;;;;;;4.65;83.63;101794.59;1706786;82;26160;-81
2020/12/20 10:50:58;;;;;;;48.70;24.80;;;;;;;4.67;83.62;101801.09;1727399;81;27528;-81
2020/12/20 10:53:26;;;;;;;51.35;26.73;;;;;;;4.68;83.57;101800.14;1684300;82;25884;-80
2020/12/20 10:55:54;;;;;;;48.13;27.82;;;;;;;4.68;83.41;101805.45;1685956;83;25858;-82
2020/12/20 10:58:22;;;;;;;53.73;28.38;;;;;;;4.68;83.57;101798.31;1689634;82;26491;-81
2020/12/20 11:00:50;;;;;;;131.18;64.20;;;;;;;4.70;83.56;101798.21;1704518;83;26532;-80
2020/12/20 11:03:17;;;;;;;153.27;70.67;;;;;;;4.72;83.46;101792.78;1675615;84;27341;-80
2020/12/20 11:05:47;;;;;;;86.03;44.17;;;;;;;4.72;83.50;101796.76;1671903;83;26619;-81
2020/12/20 11:08:15;;;;;;;103.10;49.58;;;;;;;4.72;83.50;101796.28;1683099;84;25868;-80
2020/12/20 11:10:43;;;;;;;146.05;69.32;;;;;;;4.70;83.49;101791.08;1717395;82;25889;-80
2020/12/20 11:13:12;;;;;;;106.65;54.38;;;;;;;4.73;83.46;101795.81;1653457;84;26065;-80
2020/12/20 11:15:41;;;;;;;110.97;54.48;;;;;;;4.73;83.53;101795.30;1681054;84;27551;-80
2020/12/20 11:18:09;;;;;;;99.55;51.25;;;;;;;4.73;83.50;101785.19;1708509;82;26084;-80
2020/12/20 11:20:37;;;;;;;145.68;72.22;;;;;;;4.73;83.54;101779.88;1718545;82;25788;-81
2020/12/20 11:23:05;;;;;;;105.03;56.65;;;;;;;4.74;83.58;101788.19;1675317;84;25940;-80
2020/12/20 11:25:33;;;;;;;93.65;47.73;;;;;;;4.74;83.52;101782.41;1677668;83;25793;-80
2020/12/20 11:28:01;;;;;;;95.57;52.43;;;;;;;4.69;83.50;101778.78;1697027;82;27339;-80
2020/12/20 11:30:28;;;;;;;58.08;33.38;;;;;;;4.70;83.63;101784.44;1716498;82;25945;-80
2020/12/20 11:32:57;;;;;;;75.65;38.48;;;;;;;4.69;83.38;101785.42;1664664;84;26774;-81
2020/12/20 11:35:24;;;;;;;74.97;41.80;;;;;;;4.66;83.39;101783.50;1669318;82;25996;-80